Time;durP1;ratioP1;P1;durP2;ratioP2;P2;SDS_P1;SDS_P2;PMS_P1;PMS_P2;Temp;Humidity;BMP_temperature;BMP_pressure;BME280_temperature;BME280_humidity;BME280_pressure;Samples;Min_cycle;Max_cycle;Signal;HPM_P1;HPM_P2
2024/01/04 00:00:16;;;;;;;2.77;0.80;;;;;;;;;;10329399;28;20600;-72
2024/01/04 00:05:16;;;;;;;0.60;0.60;;;;;;;;;;10329044;28;20675;-72
2024/01/04 00:10:17;;;;;;;0.63;0.60;;;;;;;;;;10327752;28;21034;-72
2024/01/04 00:15:18;;;;;;;3.30;0.70;;;;;;;;;;10329068;28;20685;-71
2024/01/04 00:20:18;;;;;;;1.30;0.60;;;;;;;;;;10328499;28;20671;-72
2024/01/04 00:25:18;;;;;;;0.60;0.60;;;;;;;;;;10328833;28;20237;-71
2024/01/04 00:30:18;;;;;;;0.60;0.60;;;;;;;;;;10326683;28;20728;-71
2024/01/04 00:35:18;;;;;;;0.60;0.60;;;;;;;;;;10327120;28;20202;-71
2024/01/04 00:40:19;;;;;;;0.60;0.60;;;;;;;;;;10326539;28;20236;-71
2024/01/04 00:45:19;;;;;;;0.63;0.63;;;;;;;;;;10327200;28;20186;-72
2024/01/04 00:50:19;;;;;;;0.60;0.60;;;;;;;;;;10326439;28;20224;-71
2024/01/04 00:55:19;;;;;;;0.73;0.60;;;;;;;;;;10327715;28;20202;-72
2024/01/04 01:00:19;;;;;;;1.20;0.80;;;;;;;;;;10326243;28;20217;-72
2024/01/04 01:05:20;;;;;;;2.60;0.90;;;;;;;;;;10327533;28;20714;-71
2024/01/04 01:10:20;;;;;;;2.13;0.70;;;;;;;;;;10326084;28;20719;-71
2024/01/04 01:15:20;;;;;;;0.73;0.60;;;;;;;;;;10327407;28;20209;-71
2024/01/04 01:20:20;;;;;;;1.17;0.80;;;;;;;;;;10327049;28;20271;-71
2024/01/04 01:25:21;;;;;;;1.37;0.80;;;;;;;;;;10324556;28;20182;-71
2024/01/04 01:30:21;;;;;;;1.47;0.80;;;;;;;;;;10326860;28;20572;-70
2024/01/04 01:35:21;;;;;;;0.60;0.60;;;;;;;;;;10325631;28;20464;-72
2024/01/04 01:40:22;;;;;;;0.70;0.70;;;;;;;;;;10326713;28;20237;-71
2024/01/04 01:45:22;;;;;;;1.00;0.70;;;;;;;;;;10325557;28;20476;-70
2024/01/04 01:50:23;;;;;;;1.75;0.80;;;;;;;;;;10326632;28;20218;-70
2024/01/04 01:55:24;;;;;;;1.53;0.70;;;;;;;;;;10329422;28;20209;-70
2024/01/04 02:00:24;;;;;;;1.40;0.70;;;;;;;;;;10333016;28;20210;-71
2024/01/04 02:05:24;;;;;;;1.17;0.70;;;;;;;;;;10332955;28;20773;-70
2024/01/04 02:10:25;;;;;;;0.70;0.70;;;;;;;;;;10333491;28;20224;-70
2024/01/04 02:15:25;;;;;;;2.07;0.80;;;;;;;;;;10332391;28;20193;-71
2024/01/04 02:20:25;;;;;;;0.80;0.70;;;;;;;;;;10333034;28;20291;-71
2024/01/04 02:25:26;;;;;;;0.77;0.60;;;;;;;;;;10331617;28;20179;-71
2024/01/04 02:30:26;;;;;;;0.70;0.70;;;;;;;;;;10332852;28;20234;-71
2024/01/04 02:35:27;;;;;;;0.80;0.80;;;;;;;;;;10332482;28;20205;-71
2024/01/04 02:40:29;;;;;;;2.47;0.83;;;;;;;;;;10331289;28;20482;-72
2024/01/04 02:45:29;;;;;;;0.60;0.60;;;;;;;;;;10331063;28;20194;-72
2024/01/04 02:50:31;;;;;;;1.00;0.80;;;;;;;;;;10330700;28;20699;-71
2024/01/04 02:55:31;;;;;;;1.03;0.73;;;;;;;;;;10332078;28;20194;-71
2024/01/04 03:00:31;;;;;;;1.23;0.93;;;;;;;;;;10328838;28;20245;-71
2024/01/04 03:05:31;;;;;;;0.60;0.60;;;;;;;;;;10331705;28;20264;-72
2024/01/04 03:10:32;;;;;;;0.60;0.60;;;;;;;;;;10330732;28;20213;-72
2024/01/04 03:15:32;;;;;;;0.70;0.60;;;;;;;;;;10330564;28;20673;-72
2024/01/04 03:20:32;;;;;;;0.60;0.60;;;;;;;;;;10329545;28;20301;-72
2024/01/04 03:25:32;;;;;;;0.77;0.60;;;;;;;;;;10331045;28;20720;-72
2024/01/04 03:30:32;;;;;;;0.60;0.60;;;;;;;;;;10331057;28;20244;-71
2024/01/04 03:35:32;;;;;;;1.00;0.70;;;;;;;;;;10330636;28;20198;-71
2024/01/04 03:40:33;;;;;;;0.67;0.60;;;;;;;;;;10327659;28;20316;-71
2024/01/04 03:45:33;;;;;;;1.13;0.67;;;;;;;;;;10328931;28;20593;-71
2024/01/04 03:50:33;;;;;;;0.50;0.50;;;;;;;;;;10329566;28;20568;-71
2024/01/04 03:55:34;;;;;;;3.53;0.63;;;;;;;;;;10329434;28;20662;-69
2024/01/04 04:00:34;;;;;;;1.67;0.60;;;;;;;;;;10327990;28;20226;-70
2024/01/04 04:05:34;;;;;;;0.50;0.50;;;;;;;;;;10329200;28;20229;-69
2024/01/04 04:10:34;;;;;;;0.57;0.57;;;;;;;;;;10328668;28;20712;-70
2024/01/04 04:15:35;;;;;;;0.97;0.80;;;;;;;;;;10328588;28;20672;-70
2024/01/04 04:20:35;;;;;;;2.10;1.23;;;;;;;;;;10326413;28;20755;-70
2024/01/04 04:25:36;;;;;;;0.70;0.70;;;;;;;;;;10328750;28;20190;-71
2024/01/04 04:30:36;;;;;;;7.47;3.97;;;;;;;;;;10329436;28;20987;-71
2024/01/04 04:35:36;;;;;;;0.80;0.80;;;;;;;;;;10328296;28;20237;-72
2024/01/04 04:40:36;;;;;;;1.77;0.93;;;;;;;;;;10327715;28;20230;-71
2024/01/04 04:45:36;;;;;;;0.60;0.60;;;;;;;;;;10328360;28;20190;-71
2024/01/04 04:50:37;;;;;;;1.10;1.00;;;;;;;;;;10327777;28;20882;-72
2024/01/04 04:55:37;;;;;;;1.03;0.60;;;;;;;;;;10327446;28;20248;-72
2024/01/04 05:00:37;;;;;;;0.63;0.63;;;;;;;;;;10327397;28;20213;-71
2024/01/04 05:05:37;;;;;;;0.80;0.80;;;;;;;;;;10327559;28;20569;-71
2024/01/04 05:10:37;;;;;;;1.07;0.70;;;;;;;;;;10327512;28;20344;-71
2024/01/04 05:15:37;;;;;;;0.60;0.60;;;;;;;;;;10326546;28;20196;-71
2024/01/04 05:20:38;;;;;;;1.13;0.60;;;;;;;;;;10327386;28;20229;-71
2024/01/04 05:25:38;;;;;;;0.70;0.60;;;;;;;;;;10327299;28;20190;-71
2024/01/04 05:30:38;;;;;;;0.60;0.60;;;;;;;;;;10329270;28;20605;-70
2024/01/04 05:35:38;;;;;;;0.77;0.60;;;;;;;;;;10335099;28;20256;-71
2024/01/04 05:40:39;;;;;;;0.70;0.70;;;;;;;;;;10334949;28;20246;-70
2024/01/04 05:45:39;;;;;;;0.70;0.70;;;;;;;;;;10335727;28;20194;-71
2024/01/04 05:50:39;;;;;;;0.50;0.50;;;;;;;;;;10334348;28;20237;-70
2024/01/04 05:55:39;;;;;;;0.50;0.50;;;;;;;;;;10335517;28;20200;-70
2024/01/04 06:00:39;;;;;;;0.50;0.50;;;;;;;;;;10334400;28;20228;-71
2024/01/04 06:05:40;;;;;;;0.70;0.70;;;;;;;;;;10334624;28;20264;-70
2024/01/04 06:10:40;;;;;;;0.60;0.60;;;;;;;;;;10334356;28;20237;-71
2024/01/04 06:15:40;;;;;;;0.80;0.80;;;;;;;;;;10333600;28;20229;-71
2024/01/04 06:20:41;;;;;;;1.03;0.60;;;;;;;;;;10333002;28;20273;-70
2024/01/04 06:25:41;;;;;;;0.57;0.57;;;;;;;;;;10333327;28;20535;-70
2024/01/04 06:30:41;;;;;;;0.70;0.70;;;;;;;;;;10332558;28;20612;-70
2024/01/04 06:35:42;;;;;;;0.70;0.70;;;;;;;;;;10332707;28;20198;-70
2024/01/04 06:40:42;;;;;;;0.67;0.60;;;;;;;;;;10328665;28;20226;-70
2024/01/04 06:45:42;;;;;;;0.70;0.70;;;;;;;;;;10331863;28;20182;-70
2024/01/04 06:50:43;;;;;;;1.20;0.60;;;;;;;;;;10332158;28;20575;-70
2024/01/04 06:55:46;;;;;;;0.70;0.70;;;;;;;;;;10331998;28;20213;-69
2024/01/04 07:00:46;;;;;;;0.70;0.70;;;;;;;;;;10331640;28;20268;-70
2024/01/04 07:05:46;;;;;;;0.67;0.67;;;;;;;;;;10331850;28;20660;-69
2024/01/04 07:10:46;;;;;;;1.00;0.90;;;;;;;;;;10330823;28;20217;-69
2024/01/04 07:15:47;;;;;;;0.70;0.70;;;;;;;;;;10331494;28;20185;-69
2024/01/04 07:20:47;;;;;;;1.30;0.87;;;;;;;;;;10326229;28;20228;-69
2024/01/04 07:25:47;;;;;;;0.73;0.73;;;;;;;;;;10327952;28;20284;-69
2024/01/04 07:30:47;;;;;;;1.07;0.97;;;;;;;;;;10328512;28;20229;-70
2024/01/04 07:35:48;;;;;;;1.17;0.90;;;;;;;;;;10328552;28;20221;-71
2024/01/04 07:40:48;;;;;;;1.93;1.80;;;;;;;;;;10329274;28;20240;-70
2024/01/04 07:45:48;;;;;;;0.83;0.83;;;;;;;;;;10328962;28;20611;-73
2024/01/04 07:50:49;;;;;;;0.80;0.80;;;;;;;;;;10330147;28;20229;-70
2024/01/04 07:55:49;;;;;;;1.23;0.90;;;;;;;;;;10329456;28;20800;-72
2024/01/04 08:00:49;;;;;;;1.10;1.00;;;;;;;;;;10322325;28;21121;-73
2024/01/04 08:05:50;;;;;;;1.23;0.77;;;;;;;;;;10324036;28;20244;-71
2024/01/04 08:10:50;;;;;;;1.03;1.03;;;;;;;;;;10323638;28;20296;-71
2024/01/04 08:15:50;;;;;;;0.90;0.90;;;;;;;;;;10327453;28;20193;-70
2024/01/04 08:20:50;;;;;;;1.60;1.30;;;;;;;;;;10326951;28;20217;-69
2024/01/04 08:25:50;;;;;;;0.80;0.80;;;;;;;;;;10326384;28;20214;-70
2024/01/04 08:30:50;;;;;;;1.00;0.90;;;;;;;;;;10326568;28;20230;-70
2024/01/04 08:35:51;;;;;;;0.80;0.80;;;;;;;;;;10323374;28;20194;-69
2024/01/04 08:40:51;;;;;;;1.07;0.70;;;;;;;;;;10322513;28;20301;-70
2024/01/04 08:45:51;;;;;;;0.67;0.67;;;;;;;;;;10319076;28;20713;-70
2024/01/04 08:50:51;;;;;;;0.70;0.70;;;;;;;;;;10326272;28;20214;-69
2024/01/04 08:55:52;;;;;;;0.60;0.60;;;;;;;;;;10326510;28;20190;-71
2024/01/04 09:00:52;;;;;;;0.93;0.70;;;;;;;;;;10325740;28;20729;-69
2024/01/04 09:05:52;;;;;;;0.70;0.70;;;;;;;;;;10322346;28;20200;-70
2024/01/04 09:10:52;;;;;;;0.70;0.70;;;;;;;;;;10326218;28;20206;-70
2024/01/04 09:15:52;;;;;;;2.60;1.87;;;;;;;;;;10325196;28;20186;-68
2024/01/04 09:20:53;;;;;;;0.80;0.80;;;;;;;;;;10325552;28;20611;-69
2024/01/04 09:25:53;;;;;;;3.50;2.13;;;;;;;;;;10324804;28;20189;-68
2024/01/04 09:30:53;;;;;;;2.23;0.93;;;;;;;;;;10343391;22;20238;-66
2024/01/04 09:35:53;;;;;;;3.60;2.70;;;;;;;;;;10321104;28;20561;-66
2024/01/04 09:40:59;;;;;;;0.90;0.90;;;;;;;;;;10323610;28;20225;-66
2024/01/04 09:46:00;;;;;;;0.77;0.77;;;;;;;;;;10325470;28;20195;-66
2024/01/04 09:51:00;;;;;;;1.13;0.80;;;;;;;;;;10324688;28;20210;-65
2024/01/04 09:56:01;;;;;;;0.90;0.90;;;;;;;;;;10324619;28;20213;-65
2024/01/04 10:01:03;;;;;;;0.87;0.87;;;;;;;;;;10322366;28;20313;-67
2024/01/04 10:06:07;;;;;;;3.27;1.20;;;;;;;;;;10320598;28;20194;-67
2024/01/04 10:11:12;;;;;;;0.90;0.90;;;;;;;;;;10320914;28;20242;-66
2024/01/04 10:16:13;;;;;;;0.70;0.70;;;;;;;;;;10320163;28;20281;-66
2024/01/04 10:21:13;;;;;;;0.80;0.80;;;;;;;;;;10330875;28;20243;-65
2024/01/04 10:26:17;;;;;;;2.03;0.75;;;;;;;;;;10330782;28;20729;-65
2024/01/04 10:31:17;;;;;;;0.63;0.63;;;;;;;;;;10330405;28;20288;-66
2024/01/04 10:36:18;;;;;;;0.80;0.80;;;;;;;;;;10330821;28;20273;-66
2024/01/04 10:41:18;;;;;;;0.87;0.87;;;;;;;;;;10328965;28;20704;-67
2024/01/04 10:46:18;;;;;;;1.00;1.00;;;;;;;;;;10330397;28;20193;-66
2024/01/04 10:51:18;;;;;;;0.80;0.80;;;;;;;;;;10330255;28;20213;-67
2024/01/04 10:56:19;;;;;;;0.93;0.93;;;;;;;;;;10330045;28;20679;-67
2024/01/04 11:01:20;;;;;;;1.00;0.93;;;;;;;;;;10329556;28;20290;-67
2024/01/04 11:06:21;;;;;;;1.37;1.03;;;;;;;;;;10328991;28;20198;-66
2024/01/04 11:11:24;;;;;;;1.23;1.13;;;;;;;;;;10329568;28;20210;-66
2024/01/04 11:16:44;;;;;;;1.40;1.30;;;;;;;;;;10327395;28;20265;-66
2024/01/04 11:22:02;;;;;;;1.27;1.17;;;;;;;;;;10325532;28;20229;-67
2024/01/04 11:27:04;;;;;;;1.47;1.27;;;;;;;;;;10329380;28;20301;-67
2024/01/04 11:32:05;;;;;;;1.50;1.20;;;;;;;;;;10328081;28;20316;-67
2024/01/04 11:37:19;;;;;;;1.57;1.30;;;;;;;;;;10328359;28;20229;-67
2024/01/04 11:42:22;;;;;;;1.10;1.00;;;;;;;;;;10327737;28;20309;-67
2024/01/04 11:47:25;;;;;;;1.37;1.20;;;;;;;;;;10326070;28;20720;-67
2024/01/04 11:52:26;;;;;;;1.47;1.37;;;;;;;;;;10325053;28;20245;-66
2024/01/04 11:57:27;;;;;;;2.27;1.10;;;;;;;;;;10326682;28;20224;-67
2024/01/04 12:02:29;;;;;;;1.37;0.97;;;;;;;;;;10327187;28;20249;-67
2024/01/04 12:07:31;;;;;;;1.97;1.30;;;;;;;;;;10327666;28;20281;-67
2024/01/04 12:12:31;;;;;;;2.03;1.50;;;;;;;;;;10325721;28;20679;-67
2024/01/04 12:17:31;;;;;;;1.10;1.10;;;;;;;;;;10323806;28;20198;-67
2024/01/04 12:22:31;;;;;;;1.33;1.23;;;;;;;;;;10325577;28;20300;-67
2024/01/04 12:27:32;;;;;;;2.53;1.23;;;;;;;;;;10324414;28;20190;-66
2024/01/04 12:32:33;;;;;;;3.13;1.10;;;;;;;;;;10324856;28;20236;-67
2024/01/04 12:37:33;;;;;;;2.23;1.40;;;;;;;;;;10325066;28;20548;-67
2024/01/04 12:42:34;;;;;;;1.57;1.37;;;;;;;;;;10325231;28;20228;-67
2024/01/04 12:47:34;;;;;;;1.63;1.33;;;;;;;;;;10325579;28;20241;-66
2024/01/04 12:52:36;;;;;;;1.50;1.40;;;;;;;;;;10324102;28;20284;-66
2024/01/04 12:57:37;;;;;;;2.10;1.10;;;;;;;;;;10325531;28;20568;-66
2024/01/04 13:02:37;;;;;;;3.67;1.70;;;;;;;;;;10324937;28;20229;-66
2024/01/04 13:07:37;;;;;;;0.90;0.90;;;;;;;;;;10325420;28;20202;-66
2024/01/04 13:12:38;;;;;;;1.23;1.10;;;;;;;;;;10324789;28;20275;-66
2024/01/04 13:17:38;;;;;;;2.03;1.57;;;;;;;;;;10325181;28;20716;-66
2024/01/04 13:22:39;;;;;;;0.90;0.90;;;;;;;;;;10325604;28;20476;-66
2024/01/04 13:27:39;;;;;;;2.67;2.10;;;;;;;;;;10330156;28;20190;-65
2024/01/04 13:32:39;;;;;;;11.67;5.40;;;;;;;;;;10322620;28;20245;-66
2024/01/04 13:37:40;;;;;;;4.93;4.03;;;;;;;;;;10323666;28;20202;-66
2024/01/04 13:42:42;;;;;;;1.43;1.37;;;;;;;;;;10327537;28;20980;-65
2024/01/04 13:47:42;;;;;;;2.53;2.33;;;;;;;;;;10320368;28;20273;-67
2024/01/04 13:52:42;;;;;;;1.30;1.17;;;;;;;;;;10328069;28;20213;-67
2024/01/04 13:57:42;;;;;;;1.10;1.10;;;;;;;;;;10330848;28;20194;-67
2024/01/04 14:02:42;;;;;;;1.00;1.00;;;;;;;;;;10332357;28;20272;-67
2024/01/04 14:07:43;;;;;;;1.00;1.00;;;;;;;;;;10327923;28;20298;-67
2024/01/04 14:12:43;;;;;;;0.93;0.93;;;;;;;;;;10331587;28;20297;-67
2024/01/04 14:17:43;;;;;;;0.90;0.90;;;;;;;;;;10331787;28;20193;-67
2024/01/04 14:22:43;;;;;;;1.80;1.27;;;;;;;;;;10331793;28;20641;-67
2024/01/04 14:27:44;;;;;;;0.80;0.80;;;;;;;;;;10330123;28;20244;-67
2024/01/04 14:32:44;;;;;;;3.37;1.20;;;;;;;;;;10330642;28;20490;-67
2024/01/04 14:37:44;;;;;;;0.90;0.90;;;;;;;;;;10330674;28;20193;-67
2024/01/04 14:42:45;;;;;;;0.70;0.70;;;;;;;;;;10330073;28;20229;-67
2024/01/04 14:47:46;;;;;;;0.93;0.93;;;;;;;;;;10330221;28;20194;-67
2024/01/04 14:52:46;;;;;;;2.30;0.97;;;;;;;;;;10329883;28;20214;-67
2024/01/04 14:57:46;;;;;;;0.93;0.93;;;;;;;;;;10329264;28;20190;-67
2024/01/04 15:02:46;;;;;;;1.50;1.40;;;;;;;;;;10328474;28;20225;-67
2024/01/04 15:07:47;;;;;;;1.80;1.70;;;;;;;;;;10329487;28;20726;-67
2024/01/04 15:12:47;;;;;;;2.13;1.93;;;;;;;;;;10329079;28;20197;-68
2024/01/04 15:17:47;;;;;;;2.07;1.97;;;;;;;;;;10329026;28;20202;-68
2024/01/04 15:22:48;;;;;;;3.47;2.90;;;;;;;;;;10327940;28;20209;-68
2024/01/04 15:27:48;;;;;;;3.23;2.93;;;;;;;;;;10327980;28;20607;-68
2024/01/04 15:32:49;;;;;;;5.33;3.83;;;;;;;;;;10326556;28;20320;-67
2024/01/04 15:37:50;;;;;;;4.97;3.83;;;;;;;;;;10324670;28;20213;-68
2024/01/04 15:42:50;;;;;;;4.30;3.80;;;;;;;;;;10324932;28;20232;-68
2024/01/04 15:47:52;;;;;;;3.60;3.30;;;;;;;;;;10328198;28;20194;-67
2024/01/04 15:52:52;;;;;;;4.33;3.30;;;;;;;;;;10327365;28;20213;-68
2024/01/04 15:57:53;;;;;;;3.33;3.03;;;;;;;;;;10326938;28;20201;-67
2024/01/04 16:02:53;;;;;;;7.33;6.50;;;;;;;;;;10324554;28;20229;-68
2024/01/04 16:07:53;;;;;;;3.83;2.70;;;;;;;;;;10326670;28;20190;-68
2024/01/04 16:12:53;;;;;;;4.20;3.20;;;;;;;;;;10308450;28;20210;-68
2024/01/04 16:17:54;;;;;;;5.50;4.33;;;;;;;;;;10323838;28;20185;-68
2024/01/04 16:22:54;;;;;;;16.37;11.20;;;;;;;;;;10325804;28;20225;-68
2024/01/04 16:27:54;;;;;;;9.87;6.60;;;;;;;;;;10325665;28;20201;-68
2024/01/04 16:32:55;;;;;;;8.90;5.60;;;;;;;;;;10326287;28;20303;-68
2024/01/04 16:37:55;;;;;;;10.80;6.20;;;;;;;;;;10324815;28;20519;-68
2024/01/04 16:42:55;;;;;;;10.37;6.67;;;;;;;;;;10324937;28;20308;-69
2024/01/04 16:47:56;;;;;;;12.57;8.23;;;;;;;;;;10325611;28;20448;-68
2024/01/04 16:52:56;;;;;;;9.88;7.57;;;;;;;;;;10325559;28;20225;-68
2024/01/04 16:57:56;;;;;;;12.30;9.10;;;;;;;;;;10325419;28;20202;-69
2024/01/04 17:02:57;;;;;;;11.80;9.47;;;;;;;;;;10324888;28;20218;-68
2024/01/04 17:07:57;;;;;;;13.97;10.07;;;;;;;;;;10325964;28;20208;-68
2024/01/04 17:12:57;;;;;;;11.97;9.13;;;;;;;;;;10323087;28;20483;-68
2024/01/04 17:17:58;;;;;;;13.63;8.67;;;;;;;;;;10325263;28;20861;-68
2024/01/04 17:22:58;;;;;;;12.43;7.87;;;;;;;;;;10327302;28;20236;-68
2024/01/04 17:27:58;;;;;;;13.50;6.93;;;;;;;;;;10330731;28;20194;-68
2024/01/04 17:32:59;;;;;;;10.03;7.47;;;;;;;;;;10334818;28;20244;-68
2024/01/04 17:37:59;;;;;;;9.23;6.47;;;;;;;;;;10333939;28;20196;-68
2024/01/04 17:42:59;;;;;;;8.73;7.07;;;;;;;;;;10332864;28;20704;-68
2024/01/04 17:47:59;;;;;;;12.53;7.80;;;;;;;;;;10333113;28;20190;-68
2024/01/04 17:52:59;;;;;;;10.43;7.17;;;;;;;;;;10334159;28;20304;-68
2024/01/04 17:57:59;;;;;;;10.73;7.20;;;;;;;;;;10332900;28;20305;-68
2024/01/04 18:03:00;;;;;;;13.00;7.67;;;;;;;;;;10333534;28;20229;-68
2024/01/04 18:08:00;;;;;;;12.63;8.27;;;;;;;;;;10333633;28;20190;-68
2024/01/04 18:13:01;;;;;;;10.10;8.17;;;;;;;;;;10333429;28;20719;-68
2024/01/04 18:18:02;;;;;;;14.40;9.83;;;;;;;;;;10333273;28;20202;-68
2024/01/04 18:23:03;;;;;;;11.73;8.07;;;;;;;;;;10333315;28;20874;-67
2024/01/04 18:28:03;;;;;;;13.00;7.93;;;;;;;;;;10332978;28;20202;-67
2024/01/04 18:33:03;;;;;;;11.43;8.10;;;;;;;;;;10332607;28;20237;-67
2024/01/04 18:38:04;;;;;;;9.57;7.17;;;;;;;;;;10332063;28;20602;-68
2024/01/04 18:43:04;;;;;;;10.80;8.57;;;;;;;;;;10331228;28;20234;-67
2024/01/04 18:48:04;;;;;;;19.77;17.67;;;;;;;;;;10330903;28;20602;-68
2024/01/04 18:53:05;;;;;;;11.27;8.43;;;;;;;;;;10331773;28;20240;-68
2024/01/04 18:58:05;;;;;;;10.33;6.80;;;;;;;;;;10331439;28;20197;-68
2024/01/04 19:03:05;;;;;;;9.17;6.90;;;;;;;;;;10331127;28;20222;-67
2024/01/04 19:08:05;;;;;;;23.20;12.70;;;;;;;;;;10330741;28;20201;-68
2024/01/04 19:13:06;;;;;;;17.83;11.77;;;;;;;;;;10331161;28;20208;-68
2024/01/04 19:18:07;;;;;;;8.87;5.90;;;;;;;;;;10330716;28;20204;-68
2024/01/04 19:23:07;;;;;;;8.50;6.17;;;;;;;;;;10329960;28;20300;-68
2024/01/04 19:28:07;;;;;;;9.37;6.93;;;;;;;;;;10330621;28;20186;-67
2024/01/04 19:33:07;;;;;;;9.93;7.37;;;;;;;;;;10328896;28;20234;-68
2024/01/04 19:38:10;;;;;;;8.90;6.57;;;;;;;;;;10330225;28;20198;-68
2024/01/04 19:43:10;;;;;;;10.73;7.80;;;;;;;;;;10329363;28;20257;-68
2024/01/04 19:48:11;;;;;;;10.63;6.57;;;;;;;;;;10328680;28;20244;-68
2024/01/04 19:53:11;;;;;;;9.63;6.03;;;;;;;;;;10328857;28;20213;-68
2024/01/04 19:58:11;;;;;;;10.17;6.70;;;;;;;;;;10328531;28;20668;-68
2024/01/04 20:03:12;;;;;;;10.90;7.40;;;;;;;;;;10324999;28;20240;-68
2024/01/04 20:08:12;;;;;;;11.10;6.37;;;;;;;;;;10328558;28;20189;-68
2024/01/04 20:13:13;;;;;;;17.80;9.90;;;;;;;;;;10327193;28;20311;-69
2024/01/04 20:18:13;;;;;;;13.47;7.80;;;;;;;;;;10327811;28;20712;-69
2024/01/04 20:23:13;;;;;;;10.50;7.27;;;;;;;;;;10327700;28;20240;-68
2024/01/04 20:28:13;;;;;;;10.47;6.40;;;;;;;;;;10327771;28;20194;-69
2024/01/04 20:33:14;;;;;;;11.33;7.77;;;;;;;;;;10327285;28;20234;-69
2024/01/04 20:38:14;;;;;;;11.60;7.00;;;;;;;;;;10327270;28;20629;-69
2024/01/04 20:43:14;;;;;;;11.40;6.87;;;;;;;;;;10327015;28;20312;-69
2024/01/04 20:48:14;;;;;;;11.10;7.47;;;;;;;;;;10327067;28;20574;-69
2024/01/04 20:53:14;;;;;;;11.80;7.30;;;;;;;;;;10326874;28;20222;-69
2024/01/04 20:58:15;;;;;;;11.23;7.57;;;;;;;;;;10326908;28;20221;-69
2024/01/04 21:03:19;;;;;;;11.68;8.05;;;;;;;;;;10325992;28;20851;-69
2024/01/04 21:08:19;;;;;;;11.70;8.17;;;;;;;;;;10326566;28;20244;-69
2024/01/04 21:13:19;;;;;;;11.17;7.40;;;;;;;;;;10326476;28;20713;-69
2024/01/04 21:18:20;;;;;;;10.20;7.13;;;;;;;;;;10326453;28;20200;-68
2024/01/04 21:23:20;;;;;;;10.67;7.20;;;;;;;;;;10325239;28;20244;-69
2024/01/04 21:28:21;;;;;;;12.50;7.83;;;;;;;;;;10308844;28;20190;-68
2024/01/04 21:33:21;;;;;;;11.37;7.87;;;;;;;;;;10326099;28;20244;-69
2024/01/04 21:38:22;;;;;;;12.87;7.90;;;;;;;;;;10325925;28;20192;-69
2024/01/04 21:43:22;;;;;;;11.87;8.23;;;;;;;;;;10326412;28;20313;-68
2024/01/04 21:48:23;;;;;;;15.83;9.03;;;;;;;;;;10325746;28;20193;-69
2024/01/04 21:53:23;;;;;;;11.97;7.37;;;;;;;;;;10325530;28;20608;-69
2024/01/04 21:58:23;;;;;;;14.67;8.37;;;;;;;;;;10325627;28;20197;-69
2024/01/04 22:03:23;;;;;;;11.60;7.53;;;;;;;;;;10325073;28;20229;-69
2024/01/04 22:08:24;;;;;;;12.10;8.50;;;;;;;;;;10325240;28;20218;-70
2024/01/04 22:13:24;;;;;;;16.50;10.60;;;;;;;;;;10328511;28;20213;-71
2024/01/04 22:18:24;;;;;;;26.30;12.87;;;;;;;;;;10332687;28;20192;-70
2024/01/04 22:23:24;;;;;;;21.73;12.17;;;;;;;;;;10332656;28;20217;-69
2024/01/04 22:28:24;;;;;;;15.97;10.17;;;;;;;;;;10332812;28;20190;-69
2024/01/04 22:33:25;;;;;;;15.33;9.27;;;;;;;;;;10332366;28;20348;-69
2024/01/04 22:38:25;;;;;;;14.30;8.83;;;;;;;;;;10332082;28;20449;-69
2024/01/04 22:43:25;;;;;;;17.73;9.20;;;;;;;;;;10330702;28;20240;-69
2024/01/04 22:48:25;;;;;;;14.07;8.60;;;;;;;;;;10331651;28;20204;-69
2024/01/04 22:53:26;;;;;;;14.60;8.73;;;;;;;;;;10331780;28;20217;-69
2024/01/04 22:58:26;;;;;;;14.77;8.97;;;;;;;;;;10331505;28;20202;-69
2024/01/04 23:03:27;;;;;;;16.17;9.60;;;;;;;;;;10331245;28;20221;-69
2024/01/04 23:08:27;;;;;;;15.07;9.40;;;;;;;;;;10331222;28;20194;-69
2024/01/04 23:13:27;;;;;;;23.67;11.70;;;;;;;;;;10331075;28;20220;-69
2024/01/04 23:18:28;;;;;;;24.37;12.33;;;;;;;;;;10330767;28;20209;-69
2024/01/04 23:23:28;;;;;;;17.43;10.57;;;;;;;;;;10329564;28;20230;-69
2024/01/04 23:28:28;;;;;;;19.50;11.10;;;;;;;;;;10330508;28;20201;-69
2024/01/04 23:33:28;;;;;;;17.07;10.10;;;;;;;;;;10330069;28;20233;-69
2024/01/04 23:38:29;;;;;;;14.43;9.13;;;;;;;;;;10330281;28;20221;-69
2024/01/04 23:43:29;;;;;;;14.03;8.70;;;;;;;;;;10329519;28;20229;-69
2024/01/04 23:48:29;;;;;;;15.07;8.60;;;;;;;;;;10329690;28;20201;-69
2024/01/04 23:53:29;;;;;;;15.10;8.90;;;;;;;;;;10329463;28;20233;-68
2024/01/04 23:58:29;;;;;;;16.93;9.30;;;;;;;;;;10329359;28;20217;-69
